createdAt,value
2022-08-07T00:01:44.354Z,9.32
2022-08-07T00:04:06.368Z,9.68
2022-08-07T00:06:36.500Z,9.93
2022-08-07T00:09:16.675Z,9.05
2022-08-07T00:11:54.269Z,10.48
2022-08-07T00:14:25.466Z,10.65
2022-08-07T00:16:58.595Z,9.13
2022-08-07T00:19:26.048Z,10.02
2022-08-07T00:22:02.326Z,9.18
2022-08-07T00:24:31.680Z,15.18
2022-08-07T00:27:07.339Z,11.52
2022-08-07T00:29:36.998Z,9.43
2022-08-07T00:32:06.905Z,13.00
2022-08-07T00:34:35.386Z,11.65
2022-08-07T00:37:05.054Z,11.75
2022-08-07T00:39:35.780Z,10.35
2022-08-07T00:42:04.944Z,10.05
2022-08-07T00:44:33.916Z,9.88
2022-08-07T00:47:02.150Z,9.48
2022-08-07T00:50:16.896Z,11.20
2022-08-07T00:52:17.587Z,9.55
2022-08-07T00:54:46.939Z,9.23
2022-08-07T00:57:23.037Z,10.02
2022-08-07T00:59:53.260Z,9.80
2022-08-07T01:02:28.392Z,10.10
2022-08-07T01:04:58.676Z,13.80
2022-08-07T01:07:28.381Z,9.60
2022-08-07T01:10:05.936Z,9.35
2022-08-07T01:12:53.473Z,9.43
2022-08-07T01:15:35.821Z,10.75
2022-08-07T01:18:16.871Z,9.30
2022-08-07T01:20:59.353Z,9.48
2022-08-07T01:23:36.761Z,9.43
2022-08-07T01:26:16.682Z,12.55
2022-08-07T01:28:48.799Z,10.07
2022-08-07T01:31:27.868Z,10.30
2022-08-07T01:34:09.207Z,8.25
2022-08-07T01:36:40.900Z,9.98
2022-08-07T01:42:01.720Z,13.05
2022-08-07T01:44:35.018Z,8.50
2022-08-07T01:47:14.432Z,8.57
2022-08-07T01:49:53.694Z,6.95
2022-08-07T01:52:26.756Z,8.27
2022-08-07T01:54:57.104Z,8.98
2022-08-07T02:00:13.816Z,8.63
2022-08-07T02:03:12.585Z,9.38
2022-08-07T02:06:02.378Z,8.15
2022-08-07T02:08:42.363Z,14.30
2022-08-07T02:11:11.292Z,12.77
2022-08-07T02:14:02.705Z,17.63
2022-08-07T02:16:33.233Z,10.40
2022-08-07T02:19:05.663Z,13.55
2022-08-07T02:21:57.018Z,12.30
2022-08-07T02:24:29.445Z,9.70
2022-08-07T02:27:00.130Z,10.52
2022-08-07T02:29:30.668Z,9.90
2022-08-07T02:32:01.024Z,13.02
2022-08-07T02:34:29.097Z,10.88
2022-08-07T02:37:02.019Z,11.25
2022-08-07T02:40:01.637Z,13.30
2022-08-07T02:42:32.467Z,15.05
2022-08-07T02:45:07.437Z,10.32
2022-08-07T02:47:49.960Z,15.13
2022-08-07T02:50:19.753Z,18.35
2022-08-07T02:53:06.540Z,16.40
2022-08-07T02:56:02.319Z,11.65
2022-08-07T02:58:33.529Z,10.77
2022-08-07T03:01:03.295Z,11.57
2022-08-07T03:03:49.985Z,11.60
2022-08-07T03:06:25.942Z,16.40
2022-08-07T03:09:02.997Z,11.73
2022-08-07T03:11:32.971Z,12.38
2022-08-07T03:14:06.930Z,11.77
2022-08-07T03:16:34.901Z,13.07
2022-08-07T03:19:03.008Z,12.55
2022-08-07T03:21:33.459Z,11.70
2022-08-07T03:24:21.038Z,11.57
2022-08-07T03:26:58.170Z,14.18
2022-08-07T03:29:49.323Z,12.63
2022-08-07T03:32:23.163Z,17.50
2022-08-07T03:35:16.969Z,13.88
2022-08-07T03:37:54.016Z,11.65
2022-08-07T03:40:27.487Z,16.15
2022-08-07T03:43:00.788Z,12.52
2022-08-07T03:45:30.580Z,11.60
2022-08-07T03:48:10.137Z,15.60
2022-08-07T03:50:39.232Z,15.32
2022-08-07T03:53:11.336Z,13.02
2022-08-07T03:55:53.076Z,13.48
2022-08-07T03:59:07.202Z,16.05
2022-08-07T04:01:14.923Z,12.07
2022-08-07T04:03:53.390Z,14.07
2022-08-07T04:06:37.633Z,13.00
2022-08-07T04:09:15.295Z,17.88
2022-08-07T04:12:24.747Z,14.40
2022-08-07T04:14:37.430Z,11.77
2022-08-07T04:17:20.401Z,12.93
2022-08-07T04:19:54.898Z,11.52
2022-08-07T04:22:29.700Z,15.38
2022-08-07T04:25:02.254Z,18.20
2022-08-07T04:27:35.438Z,14.93
2022-08-07T04:30:35.506Z,14.13
2022-08-07T04:33:07.397Z,10.52
2022-08-07T04:35:37.745Z,10.13
2022-08-07T04:38:13.091Z,11.68
2022-08-07T04:40:52.635Z,17.92
2022-08-07T04:44:09.965Z,13.88
2022-08-07T04:47:04.993Z,11.88
2022-08-07T04:50:03.849Z,11.93
2022-08-07T04:52:46.945Z,9.88
2022-08-07T04:58:14.700Z,10.70
2022-08-07T05:00:11.021Z,15.90
2022-08-07T05:02:35.731Z,17.17
2022-08-07T05:05:11.995Z,11.48
2022-08-07T05:08:02.921Z,7.75
2022-08-07T05:10:45.506Z,8.13
2022-08-07T05:14:54.375Z,8.07
2022-08-07T05:16:09.442Z,11.20
2022-08-07T05:18:44.334Z,8.90
2022-08-07T05:21:14.840Z,8.98
2022-08-07T05:23:50.204Z,10.77
2022-08-07T05:26:23.596Z,11.05
2022-08-07T05:29:04.433Z,11.25
2022-08-07T05:31:38.626Z,11.43
2022-08-07T05:34:15.907Z,10.00
2022-08-07T05:36:52.881Z,10.73
2022-08-07T05:40:16.532Z,9.95
2022-08-07T05:42:36.938Z,9.68
2022-08-07T05:45:14.546Z,10.60
2022-08-07T05:48:01.588Z,9.02
2022-08-07T05:50:42.752Z,9.30
2022-08-07T05:54:12.677Z,10.93
2022-08-07T05:56:03.120Z,10.73
2022-08-07T05:58:37.616Z,9.30
2022-08-07T06:01:11.814Z,11.20
2022-08-07T06:03:57.088Z,9.88
2022-08-07T06:06:32.570Z,10.05
2022-08-07T06:09:05.221Z,9.65
2022-08-07T06:11:36.734Z,10.68
2022-08-07T06:14:12.619Z,12.13
2022-08-07T06:16:50.300Z,8.63
2022-08-07T06:19:52.402Z,10.20
2022-08-07T06:22:20.533Z,7.72
2022-08-07T06:25:01.789Z,9.32
2022-08-07T06:28:00.731Z,9.10
2022-08-07T06:30:32.440Z,9.88
2022-08-07T06:33:15.720Z,10.95
2022-08-07T06:36:06.381Z,8.13
2022-08-07T06:38:32.799Z,8.73
2022-08-07T06:41:07.039Z,10.35
2022-08-07T06:43:46.402Z,6.88
2022-08-07T06:46:20.421Z,9.18
2022-08-07T06:48:58.364Z,13.85
2022-08-07T06:51:33.489Z,8.73
2022-08-07T06:55:29.255Z,10.10
2022-08-07T06:56:55.646Z,11.50
2022-08-07T07:00:16.699Z,17.92
2022-08-07T07:02:48.131Z,8.90
2022-08-07T07:05:13.420Z,8.45
2022-08-07T07:08:06.350Z,11.73
2022-08-07T07:10:35.597Z,11.25
2022-08-07T07:13:56.102Z,14.10
2022-08-07T07:16:19.481Z,9.55
2022-08-07T07:18:54.297Z,11.73
2022-08-07T07:21:27.286Z,15.23
2022-08-07T07:24:12.525Z,12.18
2022-08-07T07:26:51.920Z,13.77
2022-08-07T07:29:55.868Z,18.48
2022-08-07T07:32:13.998Z,14.27
2022-08-07T07:34:45.300Z,12.13
2022-08-07T07:37:22.004Z,13.70
2022-08-07T07:40:10.190Z,11.32
2022-08-07T07:42:50.936Z,12.65
2022-08-07T07:46:37.883Z,14.68
2022-08-07T07:48:35.063Z,10.18
2022-08-07T07:51:07.894Z,11.90
2022-08-07T07:53:51.726Z,9.80
2022-08-07T07:56:30.024Z,11.95
2022-08-07T07:59:01.701Z,10.38
2022-08-07T08:02:04.061Z,13.30
2022-08-07T08:04:25.343Z,9.18
2022-08-07T08:06:53.596Z,12.95
2022-08-07T08:09:24.658Z,9.95
2022-08-07T08:12:01.597Z,15.95
2022-08-07T08:14:36.849Z,13.48
2022-08-07T08:17:55.334Z,12.45
2022-08-07T08:20:18.658Z,12.30
2022-08-07T08:23:12.818Z,9.00
2022-08-07T08:26:07.011Z,8.95
2022-08-07T08:28:43.421Z,8.50
2022-08-07T08:31:22.850Z,10.73
2022-08-07T08:34:06.375Z,9.32
2022-08-07T08:36:36.990Z,13.57
2022-08-07T08:39:08.995Z,8.63
2022-08-07T08:41:57.619Z,9.35
2022-08-07T08:44:31.374Z,8.70
2022-08-07T08:47:12.678Z,7.72
2022-08-07T08:50:02.591Z,7.97
2022-08-07T08:52:56.488Z,8.73
2022-08-07T08:55:55.238Z,9.40
2022-08-07T08:58:36.942Z,10.38
2022-08-07T09:01:18.543Z,7.68
2022-08-07T09:03:52.960Z,11.15
2022-08-07T09:06:36.483Z,10.05
2022-08-07T09:09:30.103Z,6.57
2022-08-07T09:12:31.845Z,7.30
2022-08-07T09:16:23.468Z,6.20
2022-08-07T09:18:36.662Z,6.35
2022-08-07T09:21:34.264Z,7.95
2022-08-07T09:27:30.873Z,8.77
2022-08-07T09:30:09.422Z,6.00
2022-08-07T09:32:54.428Z,7.88
2022-08-07T09:36:05.013Z,8.15
2022-08-07T09:38:39.279Z,9.13
2022-08-07T09:41:58.587Z,9.60
2022-08-07T09:44:33.023Z,6.72
2022-08-07T09:47:58.991Z,7.85
2022-08-07T09:50:46.485Z,14.00
2022-08-07T09:53:15.941Z,8.95
2022-08-07T09:56:03.914Z,5.82
2022-08-07T09:59:01.112Z,6.47
2022-08-07T10:02:11.536Z,9.95
2022-08-07T10:05:15.534Z,9.43
2022-08-07T10:07:57.759Z,6.65
2022-08-07T10:11:59.771Z,8.45
2022-08-07T10:14:01.981Z,6.45
2022-08-07T10:16:53.458Z,6.85
2022-08-07T10:19:59.539Z,6.90
2022-08-07T10:23:00.206Z,7.18
2022-08-07T10:25:51.946Z,8.52
2022-08-07T10:28:51.305Z,8.93
2022-08-07T10:31:41.005Z,6.70
2022-08-07T10:34:41.025Z,10.80
2022-08-07T10:37:48.208Z,6.07
2022-08-07T10:40:42.612Z,7.22
2022-08-07T10:43:34.521Z,9.95
2022-08-07T10:46:09.407Z,8.70
2022-08-07T10:49:04.777Z,8.13
2022-08-07T10:52:02.307Z,8.23
2022-08-07T10:55:00.879Z,6.75
2022-08-07T10:57:56.137Z,8.02
2022-08-07T11:00:39.217Z,9.10
2022-08-07T11:03:28.163Z,11.15
2022-08-07T11:06:23.106Z,7.55
2022-08-07T11:09:11.301Z,8.90
2022-08-07T11:12:01.341Z,6.30
2022-08-07T11:14:59.690Z,8.48
2022-08-07T11:17:53.778Z,7.15
2022-08-07T11:20:35.657Z,5.72
2022-08-07T11:23:45.437Z,6.20
2022-08-07T11:26:31.554Z,8.43
2022-08-07T11:29:13.149Z,10.55
2022-08-07T11:31:58.647Z,8.85
2022-08-07T11:34:42.419Z,6.43
2022-08-07T11:37:38.718Z,7.00
2022-08-07T11:40:27.579Z,7.25
2022-08-07T11:43:04.471Z,7.53
2022-08-07T11:46:13.041Z,6.38
2022-08-07T11:49:51.068Z,7.43
2022-08-07T11:52:35.758Z,6.45
2022-08-07T11:56:08.644Z,6.30
2022-08-07T11:58:58.736Z,8.63
2022-08-07T12:02:00.745Z,7.55
2022-08-07T12:04:47.672Z,8.60
2022-08-07T12:07:27.468Z,12.00
2022-08-07T12:10:24.579Z,7.55
2022-08-07T12:13:03.143Z,7.65
2022-08-07T12:16:06.849Z,11.63
2022-08-07T12:19:14.666Z,8.38
2022-08-07T12:22:38.467Z,6.03
2022-08-07T12:26:06.139Z,8.20
2022-08-07T12:28:44.897Z,6.13
2022-08-07T12:32:01.509Z,5.72
2022-08-07T12:34:38.891Z,5.63
2022-08-07T12:37:16.851Z,6.13
2022-08-07T12:39:53.213Z,8.93
2022-08-07T12:42:27.579Z,6.63
2022-08-07T12:44:59.343Z,6.15
2022-08-07T12:47:43.194Z,5.97
2022-08-07T12:50:39.396Z,9.85
2022-08-07T12:53:21.859Z,6.97
2022-08-07T12:56:09.384Z,6.53
2022-08-07T12:58:42.918Z,6.55
2022-08-07T13:01:27.921Z,8.07
2022-08-07T13:04:18.883Z,6.25
2022-08-07T13:07:03.215Z,5.22
2022-08-07T13:10:18.938Z,7.30
2022-08-07T13:13:46.659Z,7.00
2022-08-07T13:16:16.172Z,9.98
2022-08-07T13:18:50.804Z,6.55
2022-08-07T13:21:50.098Z,5.60
2022-08-07T13:24:21.128Z,7.13
2022-08-07T13:29:56.205Z,7.28
2022-08-07T13:32:31.819Z,6.18
2022-08-07T13:35:08.854Z,8.43
2022-08-07T13:37:59.020Z,8.27
2022-08-07T13:40:57.015Z,10.85
2022-08-07T13:43:27.640Z,10.18
2022-08-07T13:46:20.891Z,8.63
2022-08-07T13:48:59.339Z,11.07
2022-08-07T13:52:04.831Z,11.48
2022-08-07T13:54:23.706Z,24.45
2022-08-07T13:56:56.306Z,12.18
2022-08-07T13:59:33.537Z,9.65
2022-08-07T14:04:54.597Z,11.32
2022-08-07T14:07:30.653Z,13.38
2022-08-07T14:10:02.605Z,23.02
2022-08-07T14:12:54.890Z,11.40
2022-08-07T14:15:36.095Z,13.23
2022-08-07T14:18:28.057Z,11.85
2022-08-07T14:21:11.695Z,15.25
2022-08-07T14:24:00.751Z,12.23
2022-08-07T14:26:36.126Z,8.32
2022-08-07T14:29:10.682Z,15.68
2022-08-07T14:31:56.110Z,10.27
2022-08-07T14:34:29.892Z,17.65
2022-08-07T14:37:01.697Z,12.82
2022-08-07T14:40:18.389Z,14.13
2022-08-07T14:42:31.330Z,12.23
2022-08-07T14:45:21.310Z,10.68
2022-08-07T14:47:58.731Z,16.58
2022-08-07T14:53:16.492Z,10.10
2022-08-07T14:56:06.712Z,10.50
2022-08-07T14:58:44.517Z,9.00
2022-08-07T15:01:22.356Z,9.70
2022-08-07T15:03:53.374Z,13.63
2022-08-07T15:06:27.635Z,10.75
2022-08-07T15:09:01.589Z,19.17
2022-08-07T15:12:01.577Z,7.93
2022-08-07T15:14:32.509Z,9.32
2022-08-07T15:17:16.626Z,11.65
2022-08-07T15:20:31.586Z,11.93
2022-08-07T15:22:51.706Z,14.02
2022-08-07T15:25:36.823Z,10.18
2022-08-07T15:28:34.520Z,9.23
2022-08-07T15:33:46.668Z,8.45
2022-08-07T15:39:10.400Z,10.80
2022-08-07T15:42:44.581Z,12.48
2022-08-07T15:44:51.987Z,7.55
2022-08-07T15:47:21.884Z,10.77
2022-08-07T15:53:16.251Z,11.10
2022-08-07T15:56:02.744Z,9.15
2022-08-07T15:58:39.230Z,9.38
2022-08-07T16:01:13.340Z,7.07
2022-08-07T16:03:58.219Z,8.45
2022-08-07T16:06:34.986Z,10.77
2022-08-07T16:09:13.191Z,8.90
2022-08-07T16:12:02.091Z,9.48
2022-08-07T16:14:31.865Z,8.45
2022-08-07T16:17:15.932Z,13.32
2022-08-07T16:20:34.938Z,9.25
2022-08-07T16:23:55.151Z,8.25
2022-08-07T16:26:31.107Z,14.30
2022-08-07T16:30:10.983Z,8.50
2022-08-07T16:32:35.381Z,7.72
2022-08-07T18:43:03.242Z,11.07
2022-08-07T18:46:25.232Z,9.95
2022-08-07T18:50:30.967Z,11.07
2022-08-07T18:53:06.456Z,8.73
2022-08-07T18:55:57.136Z,15.50
2022-08-07T18:58:51.875Z,9.05
2022-08-07T19:02:18.305Z,9.18
2022-08-07T19:04:56.145Z,10.00
2022-08-07T19:07:51.952Z,11.38
2022-08-07T19:10:51.554Z,10.50
2022-08-07T19:13:56.561Z,12.10
2022-08-07T19:17:05.483Z,9.77
2022-08-07T19:19:53.912Z,9.85
2022-08-07T19:22:30.878Z,10.10
2022-08-07T19:25:06.559Z,15.65
2022-08-07T19:28:57.640Z,9.93
2022-08-07T19:31:04.085Z,10.82
2022-08-07T19:33:18.863Z,9.23
2022-08-07T19:36:01.938Z,10.82
2022-08-07T19:38:32.349Z,9.48
2022-08-07T19:41:01.304Z,12.55
2022-08-07T19:43:45.024Z,8.73
2022-08-07T19:46:26.443Z,8.05
2022-08-07T19:49:03.091Z,8.18
2022-08-07T19:51:52.517Z,10.68
2022-08-07T19:54:32.104Z,10.13
2022-08-07T19:58:00.891Z,9.23
2022-08-07T19:59:59.592Z,11.32
2022-08-07T20:02:39.243Z,8.23
2022-08-07T20:05:09.930Z,9.57
2022-08-07T20:07:47.872Z,9.18
2022-08-07T20:10:36.070Z,12.88
2022-08-07T20:13:26.984Z,7.75
2022-08-07T20:16:02.081Z,8.23
2022-08-07T20:18:34.412Z,9.27
2022-08-07T20:21:14.399Z,7.68
2022-08-07T20:23:53.886Z,7.43
2022-08-07T20:26:29.570Z,10.73
2022-08-07T20:29:01.716Z,9.40
2022-08-07T20:31:44.144Z,12.05
2022-08-07T20:34:15.279Z,9.32
2022-08-07T20:36:44.121Z,9.18
2022-08-07T20:40:04.034Z,8.43
2022-08-07T20:42:23.929Z,10.93
2022-08-07T20:44:53.073Z,10.30
2022-08-07T20:47:55.932Z,8.48
2022-08-07T20:50:18.613Z,10.07
2022-08-07T20:52:51.458Z,10.32
2022-08-07T20:55:23.906Z,8.88
2022-08-07T20:58:08.997Z,10.65
2022-08-07T21:00:47.179Z,10.27
2022-08-07T21:03:25.522Z,10.32
2022-08-07T21:06:21.418Z,8.90
2022-08-07T21:09:12.876Z,8.98
2022-08-07T21:11:50.281Z,9.10
2022-08-07T21:14:34.022Z,9.85
2022-08-07T21:18:02.150Z,10.35
2022-08-07T21:20:06.212Z,11.07
2022-08-07T21:22:45.061Z,11.15
2022-08-07T21:25:56.729Z,9.85
2022-08-07T21:28:48.805Z,10.38
2022-08-07T21:32:03.677Z,18.65
2022-08-07T21:34:46.152Z,10.65
2022-08-07T21:37:25.907Z,10.30
2022-08-07T21:40:06.688Z,9.52
2022-08-07T21:42:48.349Z,10.70
2022-08-07T21:46:05.398Z,11.05
2022-08-07T21:48:55.700Z,8.85
2022-08-07T21:51:32.326Z,9.07
2022-08-07T21:54:19.693Z,10.20
2022-08-07T21:57:07.579Z,13.10
2022-08-07T22:00:06.108Z,9.98
2022-08-07T22:02:43.351Z,11.73
2022-08-07T22:05:21.710Z,12.23
2022-08-07T22:08:05.565Z,16.80
2022-08-07T22:10:38.515Z,10.77
2022-08-07T22:13:14.427Z,11.45
2022-08-07T22:16:38.653Z,12.18
2022-08-07T22:19:16.150Z,11.82
2022-08-07T22:22:17.773Z,11.80
2022-08-07T22:25:08.699Z,13.82
2022-08-07T22:28:07.727Z,12.95
2022-08-07T22:30:31.892Z,15.05
2022-08-07T22:33:07.319Z,11.57
2022-08-07T22:35:50.287Z,16.75
2022-08-07T22:38:24.072Z,13.73
2022-08-07T22:43:31.650Z,15.40
2022-08-07T22:47:02.113Z,14.00
2022-08-07T22:49:18.067Z,13.50
2022-08-07T22:51:54.474Z,12.65
2022-08-07T22:54:48.911Z,14.52
2022-08-07T22:57:16.992Z,15.05
2022-08-07T23:00:03.240Z,14.65
2022-08-07T23:02:39.393Z,14.73
2022-08-07T23:06:07.588Z,14.18
2022-08-07T23:08:24.090Z,11.57
2022-08-07T23:11:35.111Z,15.90
2022-08-07T23:14:33.809Z,13.07
2022-08-07T23:17:45.295Z,12.35
2022-08-07T23:20:40.255Z,13.50
2022-08-07T23:24:06.625Z,13.68
2022-08-07T23:26:50.595Z,15.32
2022-08-07T23:30:36.086Z,14.57
2022-08-07T23:35:46.454Z,13.75
2022-08-07T23:38:36.684Z,18.05
2022-08-07T23:41:33.347Z,27.63
2022-08-07T23:44:29.741Z,29.73
2022-08-07T23:47:30.732Z,31.35
2022-08-07T23:50:37.482Z,31.45
2022-08-07T23:53:51.717Z,23.38
2022-08-07T23:56:23.691Z,22.90
2022-08-07T23:58:59.232Z,27.40
